Time;durP1;ratioP1;P1;durP2;ratioP2;P2;SDS_P1;SDS_P2;PMS_P1;PMS_P2;Temp;Humidity;BMP_temperature;BMP_pressure;BME280_temperature;BME280_humidity;BME280_pressure;Samples;Min_cycle;Max_cycle;Signal;HPM_P1;HPM_P2
2021/09/27 00:02:03;;;;;;;6.60;5.00;;;18.20;99.90;;;;;;5078023;28;20446;-48
2021/09/27 00:04:30;;;;;;;7.10;5.53;;;18.20;99.90;;;;;;5079901;28;20454;-46
2021/09/27 00:06:56;;;;;;;7.47;5.30;;;18.20;99.90;;;;;;5080116;28;20499;-52
2021/09/27 00:09:23;;;;;;;7.40;5.73;;;18.10;99.90;;;;;;5079521;28;20476;-46
2021/09/27 00:11:50;;;;;;;7.03;5.37;;;18.10;99.90;;;;;;5079123;28;20523;-48
2021/09/27 00:14:17;;;;;;;7.27;5.20;;;18.10;99.90;;;;;;5079382;28;20546;-50
2021/09/27 00:16:45;;;;;;;7.00;5.60;;;18.00;99.90;;;;;;5079475;28;20476;-49
2021/09/27 00:19:12;;;;;;;7.10;5.10;;;18.00;99.90;;;;;;5079558;28;20474;-45
2021/09/27 00:21:38;;;;;;;6.73;5.40;;;17.90;99.90;;;;;;5079737;28;20515;-48
2021/09/27 00:24:06;;;;;;;6.90;5.00;;;17.90;99.90;;;;;;5079094;28;20450;-50
2021/09/27 00:26:33;;;;;;;7.33;5.13;;;17.90;99.90;;;;;;5078862;28;20903;-53
2021/09/27 00:29:00;;;;;;;7.73;5.10;;;17.90;99.90;;;;;;5078608;28;20454;-49
2021/09/27 00:31:27;;;;;;;6.53;5.60;;;17.80;99.90;;;;;;5078811;28;20470;-46
2021/09/27 00:33:55;;;;;;;10.20;6.77;;;17.80;99.90;;;;;;5079045;28;20485;-50
2021/09/27 00:36:22;;;;;;;8.40;4.83;;;17.80;99.90;;;;;;5079575;28;20443;-47
2021/09/27 00:38:49;;;;;;;8.93;5.27;;;17.80;99.90;;;;;;5079835;28;20434;-47
2021/09/27 00:41:19;;;;;;;8.27;5.60;;;17.80;99.90;;;;;;5079263;28;20435;-50
2021/09/27 00:43:46;;;;;;;5.40;4.80;;;17.80;99.90;;;;;;5078947;28;20463;-45
2021/09/27 00:46:15;;;;;;;8.87;6.03;;;17.80;99.90;;;;;;5078292;28;20523;-48
2021/09/27 00:48:43;;;;;;;9.67;5.80;;;17.80;99.90;;;;;;5078691;28;20439;-51
2021/09/27 00:51:14;;;;;;;8.43;5.57;;;17.80;99.90;;;;;;5078263;28;20468;-50
2021/09/27 00:53:44;;;;;;;7.40;5.37;;;17.70;99.90;;;;;;5078176;28;20470;-46
2021/09/27 00:56:17;;;;;;;9.67;5.60;;;17.70;99.90;;;;;;5077877;28;20728;-48
2021/09/27 00:58:46;;;;;;;7.87;6.20;;;17.60;99.90;;;;;;5077855;28;20454;-48
2021/09/27 01:01:14;;;;;;;7.40;5.73;;;17.70;99.90;;;;;;5078193;28;20462;-47
2021/09/27 01:03:41;;;;;;;6.57;5.17;;;17.70;99.90;;;;;;5078445;28;20521;-46
2021/09/27 01:06:26;;;;;;;8.27;6.03;;;17.60;99.90;;;;;;5078349;28;20464;-46
2021/09/27 01:09:05;;;;;;;6.83;5.70;;;17.60;99.90;;;;;;5077850;28;20450;-48
2021/09/27 01:11:52;;;;;;;9.57;5.67;;;17.60;99.90;;;;;;5077488;28;20446;-49
2021/09/27 01:14:42;;;;;;;7.37;5.63;;;17.60;99.90;;;;;;5077828;28;20470;-48
2021/09/27 01:17:22;;;;;;;6.90;5.60;;;17.50;99.90;;;;;;5078417;28;20956;-46
2021/09/27 01:20:11;;;;;;;8.63;6.00;;;17.50;99.90;;;;;;5075945;28;20474;-51
2021/09/27 01:22:59;;;;;;;11.37;6.10;;;17.60;99.90;;;;;;5076528;28;20454;-45
2021/09/27 01:25:44;;;;;;;8.10;5.60;;;17.50;99.90;;;;;;5075893;28;20454;-45
2021/09/27 01:28:33;;;;;;;9.13;6.50;;;17.60;99.90;;;;;;5076065;28;20519;-47
2021/09/27 01:31:37;;;;;;;6.20;5.30;;;17.50;99.90;;;;;;5076042;28;20419;-46
2021/09/27 01:34:13;;;;;;;7.37;6.10;;;17.50;99.90;;;;;;5076159;28;20550;-48
2021/09/27 01:36:52;;;;;;;8.50;6.53;;;17.50;99.90;;;;;;5076048;28;20445;-47
2021/09/27 01:39:26;;;;;;;9.87;6.10;;;17.50;99.90;;;;;;5076056;28;20508;-52
2021/09/27 01:42:00;;;;;;;11.30;8.00;;;17.50;99.90;;;;;;5076701;28;20470;-51
2021/09/27 01:44:34;;;;;;;8.00;6.20;;;17.40;99.90;;;;;;5077373;28;20435;-47
2021/09/27 01:47:06;;;;;;;6.87;5.60;;;17.40;99.90;;;;;;5077735;28;20426;-48
2021/09/27 01:49:40;;;;;;;7.20;6.13;;;17.50;99.90;;;;;;5077220;28;20894;-50
2021/09/27 01:52:13;;;;;;;7.73;5.97;;;17.60;99.90;;;;;;5075726;28;20468;-51
2021/09/27 01:54:44;;;;;;;9.43;5.60;;;17.50;99.90;;;;;;5075411;28;20466;-49
2021/09/27 01:57:17;;;;;;;6.10;5.47;;;17.50;99.90;;;;;;5075645;28;20430;-48
2021/09/27 01:59:51;;;;;;;6.77;6.00;;;17.50;99.90;;;;;;5075630;28;20435;-50
2021/09/27 02:02:22;;;;;;;8.07;6.47;;;17.50;99.90;;;;;;5075405;28;20526;-47
2021/09/27 02:05:01;;;;;;;8.27;5.83;;;17.50;99.90;;;;;;5075882;28;20433;-51
2021/09/27 02:07:31;;;;;;;9.33;6.50;;;17.60;99.90;;;;;;5075987;28;20450;-46
2021/09/27 02:10:04;;;;;;;5.37;4.77;;;17.60;99.90;;;;;;5077366;28;20864;-47
2021/09/27 02:12:35;;;;;;;6.70;5.10;;;17.60;99.90;;;;;;5075993;28;20508;-48
2021/09/27 02:15:09;;;;;;;9.63;6.77;;;17.60;99.90;;;;;;5075147;28;20478;-48
2021/09/27 02:17:43;;;;;;;8.27;5.73;;;17.60;99.90;;;;;;5682715;22;20453;-47
2021/09/27 02:20:17;;;;;;;6.37;5.73;;;17.60;99.90;;;;;;5096713;28;20518;-47
2021/09/27 02:22:50;;;;;;;7.20;5.77;;;17.60;99.90;;;;;;5096603;28;20453;-47
2021/09/27 02:25:20;;;;;;;11.80;5.70;;;17.70;99.90;;;;;;5096349;28;20801;-45
2021/09/27 02:27:48;;;;;;;10.97;5.90;;;17.60;99.90;;;;;;5096203;28;20510;-44
2021/09/27 02:30:19;;;;;;;5.93;5.33;;;17.70;99.90;;;;;;5097254;28;20825;-44
2021/09/27 02:32:53;;;;;;;8.17;5.50;;;17.70;99.90;;;;;;5097904;28;20809;-46
2021/09/27 02:35:25;;;;;;;7.00;6.30;;;17.70;99.90;;;;;;5097427;28;20473;-57
2021/09/27 02:38:02;;;;;;;7.10;6.37;;;17.70;99.90;;;;;;5097385;28;20445;-45
2021/09/27 02:40:35;;;;;;;9.10;6.20;;;17.80;99.90;;;;;;5097167;28;20455;-45
2021/09/27 02:43:04;;;;;;;7.10;6.40;;;17.70;99.90;;;;;;5097224;28;20932;-51
2021/09/27 02:45:32;;;;;;;7.27;6.00;;;17.80;99.90;;;;;;5097130;28;20437;-48
2021/09/27 02:48:10;;;;;;;9.23;5.97;;;17.80;99.90;;;;;;5097150;28;20453;-46
2021/09/27 02:50:41;;;;;;;9.17;6.07;;;17.90;99.90;;;;;;5096814;28;20902;-48
2021/09/27 02:53:09;;;;;;;7.20;5.90;;;17.90;99.90;;;;;;5096968;28;20476;-50
2021/09/27 02:56:01;;;;;;;7.93;5.97;;;17.80;99.90;;;;;;5095789;28;20441;-47
2021/09/27 02:58:35;;;;;;;5.97;5.37;;;17.90;99.90;;;;;;5094938;28;20453;-46
2021/09/27 03:01:08;;;;;;;8.30;6.27;;;17.90;99.90;;;;;;5094730;28;20441;-46
2021/09/27 03:03:56;;;;;;;6.67;5.23;;;17.90;99.90;;;;;;5094683;28;20482;-52
2021/09/27 03:06:35;;;;;;;9.23;5.70;;;17.90;99.90;;;;;;5094808;28;20506;-50
2021/09/27 03:09:06;;;;;;;6.43;5.73;;;17.90;99.90;;;;;;5094739;28;20832;-50
2021/09/27 03:11:54;;;;;;;6.10;5.20;;;17.90;99.90;;;;;;5094570;28;20878;-48
2021/09/27 03:14:36;;;;;;;7.57;6.00;;;17.90;99.90;;;;;;5094445;28;20485;-47
2021/09/27 03:17:08;;;;;;;6.60;5.40;;;17.90;99.90;;;;;;5095039;28;20756;-50
2021/09/27 03:19:52;;;;;;;6.67;5.20;;;18.00;99.90;;;;;;5094379;28;20538;-47
2021/09/27 03:22:29;;;;;;;8.80;7.10;;;17.90;99.90;;;;;;5094485;28;20452;-45
2021/09/27 03:25:13;;;;;;;10.10;6.47;;;17.90;99.90;;;;;;5095884;28;20449;-50
2021/09/27 03:27:50;;;;;;;6.40;5.77;;;18.00;99.90;;;;;;5094530;28;20494;-51
2021/09/27 03:30:22;;;;;;;8.43;6.30;;;17.90;99.90;;;;;;5093992;28;20907;-49
2021/09/27 03:32:58;;;;;;;6.77;6.07;;;17.90;99.90;;;;;;5094779;28;20449;-50
2021/09/27 03:35:35;;;;;;;7.30;6.60;;;17.90;99.90;;;;;;5096387;28;20526;-52
2021/09/27 03:38:08;;;;;;;7.60;6.40;;;17.90;99.90;;;;;;5098399;28;20433;-52
2021/09/27 03:40:50;;;;;;;7.83;6.83;;;17.90;99.90;;;;;;5098694;28;20441;-52
2021/09/27 03:43:23;;;;;;;8.27;7.37;;;18.00;99.90;;;;;;5098171;28;20437;-50
2021/09/27 03:46:02;;;;;;;8.43;6.10;;;18.00;99.90;;;;;;5098301;28;20445;-47
2021/09/27 03:48:36;;;;;;;8.57;7.33;;;18.00;99.90;;;;;;5098330;28;20803;-51
2021/09/27 03:51:06;;;;;;;6.80;5.87;;;18.00;99.90;;;;;;5098236;28;20816;-51
2021/09/27 03:53:40;;;;;;;7.87;6.80;;;18.00;99.90;;;;;;5098024;28;20449;-49
2021/09/27 03:56:11;;;;;;;6.90;5.30;;;18.00;99.90;;;;;;5098580;28;20445;-48
2021/09/27 03:58:43;;;;;;;7.50;6.33;;;18.00;99.90;;;;;;5098399;28;20487;-47
2021/09/27 04:01:16;;;;;;;7.67;5.80;;;18.10;99.90;;;;;;5098523;28;20430;-50
2021/09/27 04:03:53;;;;;;;7.50;5.40;;;18.10;99.90;;;;;;5097851;28;20469;-50
2021/09/27 04:06:42;;;;;;;7.60;5.27;;;18.10;99.90;;;;;;5098153;28;20478;-48
2021/09/27 04:09:18;;;;;;;10.67;5.73;;;18.10;99.90;;;;;;5097911;28;20445;-48
2021/09/27 04:11:51;;;;;;;8.77;5.43;;;18.10;99.90;;;;;;5098286;28;20510;-46
2021/09/27 04:14:24;;;;;;;7.63;5.33;;;18.00;99.90;;;;;;5098040;28;20465;-49
2021/09/27 04:17:03;;;;;;;11.50;6.37;;;18.00;99.90;;;;;;5097419;28;20479;-46
2021/09/27 04:19:39;;;;;;;6.77;6.10;;;18.00;99.90;;;;;;5097381;28;20484;-51
2021/09/27 04:22:14;;;;;;;7.47;6.27;;;18.00;99.90;;;;;;5097677;28;20453;-51
2021/09/27 04:24:56;;;;;;;7.83;6.20;;;18.00;99.90;;;;;;5097455;28;20906;-50
2021/09/27 04:27:43;;;;;;;6.90;5.87;;;18.10;99.90;;;;;;5097648;28;20449;-51
2021/09/27 04:30:32;;;;;;;8.40;5.63;;;18.00;99.90;;;;;;5098241;28;20449;-49
2021/09/27 04:33:17;;;;;;;8.40;5.90;;;18.00;99.90;;;;;;5080424;28;20586;-48
2021/09/27 04:35:52;;;;;;;7.63;5.67;;;18.00;99.90;;;;;;5097168;28;20484;-46
2021/09/27 04:38:20;;;;;;;8.33;5.80;;;18.00;99.90;;;;;;5097561;28;20495;-48
2021/09/27 04:41:18;;;;;;;8.43;5.50;;;18.00;99.90;;;;;;5097188;28;20510;-47
2021/09/27 04:43:57;;;;;;;9.60;5.53;;;18.00;99.90;;;;;;5096921;28;20528;-45
2021/09/27 04:46:35;;;;;;;8.90;5.90;;;18.00;99.90;;;;;;5096572;28;20450;-47
2021/09/27 04:49:14;;;;;;;10.40;6.07;;;18.00;99.90;;;;;;5098751;28;20514;-49
2021/09/27 04:51:54;;;;;;;8.47;6.80;;;18.00;99.90;;;;;;5098953;28;20897;-48
2021/09/27 04:54:56;;;;;;;9.40;6.87;;;18.00;99.90;;;;;;5098592;28;20530;-49
2021/09/27 04:57:28;;;;;;;9.53;7.03;;;18.00;99.90;;;;;;5098891;28;20440;-49
2021/09/27 05:00:04;;;;;;;9.50;6.07;;;18.00;99.90;;;;;;5098577;28;20433;-52
2021/09/27 05:02:46;;;;;;;7.30;6.30;;;17.90;99.90;;;;;;5098730;28;20800;-49
2021/09/27 05:05:21;;;;;;;7.43;6.33;;;18.00;99.90;;;;;;5097137;28;20512;-48
2021/09/27 05:08:23;;;;;;;7.03;5.97;;;18.00;99.90;;;;;;5096543;28;20425;-47
2021/09/27 05:11:11;;;;;;;8.17;5.60;;;18.00;99.90;;;;;;5076467;28;20779;-48
2021/09/27 05:14:04;;;;;;;9.60;6.17;;;18.00;99.90;;;;;;5076450;28;20976;-51
2021/09/27 05:16:46;;;;;;;6.57;5.70;;;18.00;99.90;;;;;;5059439;28;20904;-50
2021/09/27 05:19:33;;;;;;;7.70;6.23;;;18.00;99.90;;;;;;5075821;28;20470;-49
2021/09/27 05:22:24;;;;;;;9.50;6.77;;;18.00;99.90;;;;;;5076136;28;20443;-47
2021/09/27 05:25:13;;;;;;;8.80;6.33;;;18.00;99.90;;;;;;5076193;28;20476;-52
2021/09/27 05:28:03;;;;;;;7.23;6.20;;;18.00;99.90;;;;;;5076108;28;20507;-48
2021/09/27 05:30:50;;;;;;;12.37;6.33;;;18.00;99.90;;;;;;5075940;28;20454;-47
2021/09/27 05:33:26;;;;;;;12.97;7.70;;;18.10;99.90;;;;;;5075774;28;20418;-46
2021/09/27 05:36:17;;;;;;;7.90;6.80;;;18.10;99.90;;;;;;5075579;28;20474;-48
2021/09/27 05:38:58;;;;;;;7.47;6.00;;;18.20;99.90;;;;;;5075768;28;20442;-45
2021/09/27 05:41:47;;;;;;;9.53;6.70;;;18.20;99.90;;;;;;5075915;28;20435;-47
2021/09/27 05:44:26;;;;;;;9.53;6.53;;;18.30;99.90;;;;;;5075454;28;20833;-47
2021/09/27 05:47:12;;;;;;;6.40;5.50;;;18.30;99.90;;;;;;5075609;28;20499;-47
2021/09/27 05:49:51;;;;;;;9.57;7.30;;;18.30;99.90;;;;;;5075875;28;20457;-45
2021/09/27 05:52:29;;;;;;;10.60;7.30;;;18.40;99.90;;;;;;5075300;28;20760;-47
2021/09/27 05:55:02;;;;;;;9.90;7.40;;;18.40;99.90;;;;;;5075406;28;20551;-46
2021/09/27 05:57:40;;;;;;;9.50;7.10;;;18.30;99.90;;;;;;5075557;28;20496;-47
2021/09/27 06:00:12;;;;;;;8.23;6.40;;;18.40;99.90;;;;;;5075289;28;20446;-46
2021/09/27 06:02:55;;;;;;;7.87;6.23;;;18.40;99.90;;;;;;5076122;28;20881;-48
2021/09/27 06:05:28;;;;;;;8.43;5.93;;;18.40;99.90;;;;;;5075118;28;20431;-48
2021/09/27 06:08:03;;;;;;;11.80;6.70;;;18.40;99.90;;;;;;5075261;28;20457;-46
2021/09/27 06:10:40;;;;;;;9.23;6.70;;;18.50;99.90;;;;;;5075393;28;20500;-49
2021/09/27 06:13:19;;;;;;;10.70;7.70;;;18.50;99.90;;;;;;5074975;28;20480;-48
2021/09/27 06:15:50;;;;;;;8.47;6.60;;;18.50;99.90;;;;;;5074996;28;20876;-46
2021/09/27 06:18:52;;;;;;;9.63;7.27;;;18.50;99.90;;;;;;5074892;28;20478;-51
2021/09/27 06:21:42;;;;;;;8.20;7.03;;;18.60;99.90;;;;;;5069663;28;20503;-48
2021/09/27 06:24:20;;;;;;;9.13;6.67;;;18.60;99.90;;;;;;5074900;28;20512;-49
2021/09/27 06:26:58;;;;;;;9.20;8.00;;;18.60;99.90;;;;;;5075111;28;20435;-47
2021/09/27 06:29:32;;;;;;;9.70;7.10;;;18.70;99.90;;;;;;5074711;28;20852;-51
2021/09/27 06:32:05;;;;;;;11.57;6.97;;;18.70;99.90;;;;;;5074594;28;20434;-50
2021/09/27 06:34:37;;;;;;;11.50;7.67;;;18.80;99.90;;;;;;5074758;28;20500;-49
2021/09/27 06:37:05;;;;;;;19.13;7.80;;;18.90;99.90;;;;;;5074678;28;20516;-47
2021/09/27 06:39:33;;;;;;;9.30;6.73;;;19.00;99.90;;;;;;5074820;28;20504;-48
2021/09/27 06:42:01;;;;;;;11.00;7.00;;;19.00;99.90;;;;;;5074603;28;20758;-45
2021/09/27 06:44:28;;;;;;;10.07;6.97;;;19.10;99.90;;;;;;5074584;28;20561;-50
2021/09/27 06:46:55;;;;;;;9.73;7.67;;;19.10;99.90;;;;;;5074538;28;20443;-50
2021/09/27 06:49:23;;;;;;;7.67;6.90;;;19.20;99.90;;;;;;5074490;28;20442;-48
2021/09/27 06:51:50;;;;;;;11.80;7.40;;;19.30;99.90;;;;;;5074435;28;20458;-53
2021/09/27 06:54:20;;;;;;;9.70;7.10;;;19.30;99.90;;;;;;5074354;28;20512;-48
2021/09/27 06:56:47;;;;;;;14.23;7.70;;;19.30;99.90;;;;;;5074394;28;20474;-48
2021/09/27 06:59:15;;;;;;;12.67;8.10;;;19.40;99.90;;;;;;5074203;28;20442;-48
2021/09/27 07:01:41;;;;;;;9.00;6.47;;;19.40;99.90;;;;;;5074344;28;20512;-49
2021/09/27 07:04:08;;;;;;;7.93;6.20;;;19.50;99.90;;;;;;5074493;28;20837;-49
2021/09/27 07:06:36;;;;;;;9.60;6.57;;;19.60;99.90;;;;;;5074050;28;20453;-48
2021/09/27 07:09:03;;;;;;;10.50;7.73;;;19.60;99.90;;;;;;5074449;28;20933;-50
2021/09/27 07:11:31;;;;;;;10.90;6.47;;;19.70;99.90;;;;;;5073646;28;20479;-47
2021/09/27 07:13:59;;;;;;;12.40;6.93;;;19.80;99.90;;;;;;5074307;28;20450;-48
2021/09/27 07:16:25;;;;;;;10.23;7.47;;;19.80;99.90;;;;;;5074267;28;20485;-51
2021/09/27 07:18:52;;;;;;;9.17;7.40;;;19.90;99.90;;;;;;5073761;28;20486;-50
2021/09/27 07:21:19;;;;;;;7.50;6.80;;;19.90;99.90;;;;;;5074431;28;20449;-50
2021/09/27 07:23:46;;;;;;;9.00;5.67;;;20.00;99.90;;;;;;5074182;28;20443;-49
2021/09/27 07:26:15;;;;;;;10.53;7.37;;;20.20;99.90;;;;;;5075781;28;20904;-50
2021/09/27 07:28:43;;;;;;;9.63;6.33;;;20.30;99.90;;;;;;5074413;28;20450;-53
2021/09/27 07:31:11;;;;;;;7.13;6.30;;;20.40;99.90;;;;;;5074056;28;20480;-49
2021/09/27 07:33:38;;;;;;;7.83;6.10;;;20.60;99.90;;;;;;5074000;28;20501;-48
2021/09/27 07:36:07;;;;;;;9.03;6.50;;;20.70;99.90;;;;;;5073709;28;20478;-50
2021/09/27 07:38:34;;;;;;;7.47;6.20;;;20.80;99.90;;;;;;5074041;28;20837;-50
2021/09/27 07:41:01;;;;;;;10.63;6.43;;;21.00;99.90;;;;;;5073673;28;20452;-52
2021/09/27 07:43:28;;;;;;;8.10;5.50;;;21.10;99.90;;;;;;5073915;28;20450;-49
2021/09/27 07:45:57;;;;;;;9.03;6.27;;;21.10;99.90;;;;;;5073929;28;20515;-52
2021/09/27 07:48:26;;;;;;;8.53;5.83;;;21.20;99.90;;;;;;5073723;28;20457;-51
2021/09/27 07:50:54;;;;;;;8.17;5.20;;;21.30;99.90;;;;;;5073845;28;20500;-48
2021/09/27 07:53:24;;;;;;;9.30;6.73;;;21.40;99.90;;;;;;5073550;28;20488;-50
2021/09/27 07:55:51;;;;;;;8.70;6.50;;;21.50;99.90;;;;;;5073713;28;20486;-49
2021/09/27 07:58:19;;;;;;;8.73;6.10;;;21.60;99.90;;;;;;5073935;28;20438;-46
2021/09/27 08:00:47;;;;;;;9.10;5.80;;;21.60;99.90;;;;;;5073699;28;20915;-52
2021/09/27 08:03:16;;;;;;;7.33;5.93;;;21.70;99.90;;;;;;5073932;28;20775;-50
2021/09/27 08:05:42;;;;;;;6.83;6.10;;;21.70;99.90;;;;;;5073498;28;20442;-48
2021/09/27 08:08:09;;;;;;;8.37;5.93;;;21.70;99.90;;;;;;5073688;28;20454;-50
2021/09/27 08:10:38;;;;;;;8.87;6.63;;;21.70;99.90;;;;;;5073328;28;20516;-47
2021/09/27 08:13:05;;;;;;;8.90;6.63;;;21.80;99.90;;;;;;5073468;28;20533;-51
2021/09/27 08:15:34;;;;;;;7.40;6.70;;;21.80;99.90;;;;;;5074382;28;20474;-48
2021/09/27 08:18:01;;;;;;;7.43;6.30;;;21.90;99.90;;;;;;5074486;28;20477;-51
2021/09/27 08:20:38;;;;;;;6.93;6.20;;;21.90;99.90;;;;;;5075167;28;20431;-47
2021/09/27 08:23:05;;;;;;;6.87;5.80;;;21.80;99.90;;;;;;5077107;28;20520;-53
2021/09/27 08:25:32;;;;;;;7.73;6.20;;;21.80;99.90;;;;;;5078379;28;20508;-49
2021/09/27 08:28:00;;;;;;;7.03;5.37;;;21.70;99.90;;;;;;5078362;28;20453;-52
2021/09/27 08:30:30;;;;;;;7.87;5.63;;;21.50;99.90;;;;;;5078063;28;20766;-48
2021/09/27 08:32:59;;;;;;;6.87;5.60;;;21.40;99.90;;;;;;5078187;28;20430;-52
2021/09/27 08:35:27;;;;;;;7.13;6.43;;;21.30;99.90;;;;;;5060769;28;20501;-52
2021/09/27 08:37:55;;;;;;;7.50;5.90;;;21.20;99.90;;;;;;5080237;28;20796;-51
2021/09/27 08:40:52;;;;;;;6.80;5.97;;;21.20;99.90;;;;;;5080099;28;20798;-50
2021/09/27 08:43:27;;;;;;;7.87;6.30;;;21.20;99.90;;;;;;5080396;28;20442;-48
2021/09/27 08:46:00;;;;;;;9.03;5.70;;;21.20;99.90;;;;;;5081479;28;20438;-47
2021/09/27 08:48:34;;;;;;;6.73;6.03;;;21.20;99.90;;;;;;5079676;28;20435;-47
2021/09/27 08:51:00;;;;;;;7.23;6.27;;;21.20;99.90;;;;;;5079748;28;20466;-47
2021/09/27 08:53:33;;;;;;;7.87;6.30;;;21.30;99.90;;;;;;5086091;28;20472;-49
2021/09/27 08:56:06;;;;;;;7.67;6.80;;;21.30;99.90;;;;;;5079396;28;20493;-50
2021/09/27 08:58:45;;;;;;;7.30;6.03;;;21.30;99.90;;;;;;5079027;28;20942;-48
2021/09/27 09:01:16;;;;;;;8.97;7.27;;;21.30;99.90;;;;;;5078321;28;20431;-49
2021/09/27 09:03:49;;;;;;;10.37;7.20;;;21.20;99.90;;;;;;5077515;28;20461;-48
2021/09/27 09:06:23;;;;;;;8.07;6.40;;;21.20;99.90;;;;;;5077368;28;20488;-47
2021/09/27 09:09:00;;;;;;;8.00;6.63;;;21.20;99.90;;;;;;5077924;28;20507;-48
2021/09/27 09:11:37;;;;;;;11.43;6.10;;;21.10;99.90;;;;;;5077975;28;20450;-48
2021/09/27 09:14:09;;;;;;;8.53;6.10;;;21.10;99.90;;;;;;5077847;28;20541;-48
2021/09/27 09:16:40;;;;;;;8.93;6.80;;;21.10;99.90;;;;;;5077256;28;20478;-53
2021/09/27 09:19:12;;;;;;;13.03;6.50;;;21.00;99.90;;;;;;5077212;28;20531;-46
2021/09/27 09:21:43;;;;;;;7.80;6.53;;;21.00;99.90;;;;;;5076804;28;20812;-49
2021/09/27 09:24:15;;;;;;;7.47;6.70;;;21.10;99.90;;;;;;5076434;28;20911;-47
2021/09/27 09:26:46;;;;;;;7.30;6.33;;;21.10;99.90;;;;;;5077952;28;20530;-52
2021/09/27 09:29:15;;;;;;;8.30;7.23;;;21.10;99.90;;;;;;5077678;28;20454;-51
2021/09/27 09:31:45;;;;;;;6.77;5.67;;;21.10;99.90;;;;;;5077776;28;20473;-50
2021/09/27 09:34:28;;;;;;;11.13;7.57;;;21.10;99.90;;;;;;5078491;28;20455;-52
2021/09/27 09:37:00;;;;;;;11.37;6.20;;;21.10;99.90;;;;;;5076930;28;20488;-52
2021/09/27 09:39:31;;;;;;;9.67;6.33;;;21.10;99.90;;;;;;5075972;28;20443;-48
2021/09/27 09:42:00;;;;;;;11.53;7.87;;;21.20;99.90;;;;;;5075832;28;20774;-48
2021/09/27 09:44:34;;;;;;;9.60;7.30;;;21.20;99.90;;;;;;5075538;28;20480;-49
2021/09/27 09:47:03;;;;;;;8.70;7.33;;;21.20;99.90;;;;;;5076110;28;20540;-53
2021/09/27 09:49:48;;;;;;;9.50;6.83;;;21.30;99.90;;;;;;5075609;28;20450;-48
2021/09/27 09:52:24;;;;;;;9.53;6.27;;;21.40;99.90;;;;;;5075703;28;20426;-52
2021/09/27 09:54:54;;;;;;;8.60;6.80;;;21.40;99.90;;;;;;5085630;28;20445;-47
2021/09/27 09:57:25;;;;;;;8.17;6.60;;;21.40;99.90;;;;;;5095292;28;20484;-51
2021/09/27 10:00:00;;;;;;;8.27;7.37;;;21.40;99.90;;;;;;5095814;28;20793;-51
2021/09/27 10:02:28;;;;;;;9.20;7.00;;;21.40;99.90;;;;;;5095307;28;20530;-51
2021/09/27 10:05:03;;;;;;;7.97;7.13;;;21.50;99.90;;;;;;5095453;28;20461;-49
2021/09/27 10:07:37;;;;;;;6.83;6.13;;;21.50;99.90;;;;;;5095303;28;20421;-49
2021/09/27 10:10:09;;;;;;;7.30;6.60;;;21.50;99.90;;;;;;5095320;28;20515;-49
2021/09/27 10:12:45;;;;;;;12.13;7.33;;;21.50;99.90;;;;;;5095089;28;20458;-49
2021/09/27 10:15:15;;;;;;;8.60;6.87;;;21.50;99.90;;;;;;5095299;28;20447;-50
2021/09/27 10:17:42;;;;;;;9.03;7.07;;;21.50;99.90;;;;;;5094848;28;20497;-50
2021/09/27 10:20:13;;;;;;;8.03;7.17;;;21.60;99.90;;;;;;5095630;28;20460;-48
2021/09/27 10:22:52;;;;;;;9.03;6.83;;;21.60;99.90;;;;;;5095338;28;20444;-52
2021/09/27 10:25:31;;;;;;;10.67;6.47;;;21.60;99.90;;;;;;5094672;28;20445;-50
2021/09/27 10:28:00;;;;;;;8.80;6.80;;;21.50;99.90;;;;;;5094829;28;20453;-47
2021/09/27 10:30:37;;;;;;;8.53;6.67;;;21.40;99.90;;;;;;5094922;28;20449;-52
2021/09/27 10:33:15;;;;;;;9.30;6.70;;;21.30;99.90;;;;;;5095238;28;20459;-49
2021/09/27 10:35:50;;;;;;;11.83;7.20;;;21.30;99.90;;;;;;5094846;28;20528;-48
2021/09/27 10:38:22;;;;;;;9.63;6.77;;;21.30;99.90;;;;;;5094852;28;20429;-50
2021/09/27 10:40:52;;;;;;;12.33;7.80;;;21.40;99.90;;;;;;5095297;28;20430;-53
2021/09/27 10:43:21;;;;;;;9.37;6.90;;;21.40;99.90;;;;;;5094742;28;20450;-53
2021/09/27 10:45:53;;;;;;;9.53;7.73;;;21.40;99.90;;;;;;5094006;28;20956;-47
2021/09/27 10:48:21;;;;;;;9.80;7.97;;;21.40;99.90;;;;;;5094124;28;20453;-46
2021/09/27 10:50:52;;;;;;;7.93;6.60;;;21.50;99.90;;;;;;5094997;28;20441;-51
2021/09/27 10:53:26;;;;;;;7.23;6.50;;;21.60;99.90;;;;;;5094690;28;20437;-50
2021/09/27 10:56:02;;;;;;;9.37;7.80;;;21.70;99.90;;;;;;5094628;28;20454;-49
2021/09/27 10:58:36;;;;;;;13.20;8.40;;;21.80;99.90;;;;;;5094774;28;21004;-50
2021/09/27 11:01:05;;;;;;;8.80;7.90;;;21.90;99.90;;;;;;5094737;28;20743;-52
2021/09/27 11:03:40;;;;;;;8.27;6.70;;;22.00;99.90;;;;;;5093899;28;20771;-51
2021/09/27 11:06:26;;;;;;;9.67;6.93;;;21.90;99.90;;;;;;5094774;28;20422;-51
2021/09/27 11:09:00;;;;;;;8.13;6.70;;;22.00;99.90;;;;;;5094582;28;20446;-52
2021/09/27 11:11:41;;;;;;;9.60;7.63;;;22.20;99.90;;;;;;5094651;28;20835;-53
2021/09/27 11:14:31;;;;;;;10.03;7.43;;;22.40;99.90;;;;;;5094723;28;20430;-51
2021/09/27 11:17:23;;;;;;;8.50;7.00;;;22.70;99.90;;;;;;5094509;28;20496;-53
2021/09/27 11:20:22;;;;;;;7.27;6.33;;;23.00;99.90;;;;;;5046976;28;20472;-51
2021/09/27 11:23:20;;;;;;;6.43;5.70;;;23.30;99.90;;;;;;5027945;28;20512;-53
2021/09/27 11:25:51;;;;;;;8.50;6.80;;;23.30;99.90;;;;;;5054054;28;20442;-50
2021/09/27 11:28:45;;;;;;;9.37;6.63;;;23.10;99.90;;;;;;5053845;28;20455;-53
2021/09/27 11:31:38;;;;;;;9.07;7.33;;;23.10;99.90;;;;;;5054154;28;20438;-54
2021/09/27 11:34:32;;;;;;;7.60;6.37;;;23.10;99.90;;;;;;5045282;28;20448;-50
2021/09/27 11:37:19;;;;;;;9.17;7.30;;;23.10;99.90;;;;;;5042915;28;20545;-51
2021/09/27 11:39:48;;;;;;;10.53;7.23;;;23.00;99.90;;;;;;5053742;28;20931;-51
2021/09/27 11:42:31;;;;;;;7.80;6.67;;;23.00;99.90;;;;;;5053475;28;20502;-53
2021/09/27 11:45:17;;;;;;;14.10;8.77;;;23.00;99.90;;;;;;5041700;28;20463;-53
2021/09/27 11:47:56;;;;;;;11.00;7.30;;;22.80;99.90;;;;;;5048145;28;20439;-52
2021/09/27 11:51:04;;;;;;;7.90;7.00;;;22.70;99.90;;;;;;5054510;28;20828;-58
2021/09/27 11:53:45;;;;;;;8.97;6.03;;;22.60;99.90;;;;;;5048725;28;20474;-53
2021/09/27 11:56:17;;;;;;;8.47;6.37;;;22.50;99.90;;;;;;5054837;28;20508;-51
2021/09/27 11:58:49;;;;;;;13.43;7.10;;;22.50;99.90;;;;;;5057906;28;20447;-51
2021/09/27 12:01:31;;;;;;;10.30;7.23;;;22.50;99.90;;;;;;5057348;28;20826;-54
2021/09/27 12:04:00;;;;;;;8.00;6.20;;;22.60;99.90;;;;;;5037852;28;20448;-53
2021/09/27 12:06:32;;;;;;;7.70;6.50;;;22.50;99.90;;;;;;5037640;28;20443;-54
2021/09/27 12:09:05;;;;;;;7.50;6.10;;;22.50;99.90;;;;;;5037565;28;20451;-47
2021/09/27 12:11:35;;;;;;;6.60;5.23;;;22.50;99.90;;;;;;5037392;28;20460;-53
2021/09/27 12:14:04;;;;;;;5.93;4.83;;;22.50;99.90;;;;;;5037679;28;20530;-51
2021/09/27 12:16:34;;;;;;;6.50;5.30;;;22.50;99.90;;;;;;5037445;28;21058;-50
2021/09/27 12:19:02;;;;;;;6.47;5.33;;;22.50;99.90;;;;;;5064697;28;20481;-48
2021/09/27 12:21:32;;;;;;;7.33;6.20;;;22.40;99.90;;;;;;5077141;28;20482;-50
2021/09/27 12:24:07;;;;;;;9.10;5.67;;;22.40;99.90;;;;;;5077028;28;20474;-52
2021/09/27 12:26:44;;;;;;;6.63;5.53;;;22.30;99.90;;;;;;5077235;28;20453;-47
2021/09/27 12:29:12;;;;;;;9.97;5.90;;;22.30;99.90;;;;;;5077361;28;20454;-50
2021/09/27 12:31:50;;;;;;;7.20;6.07;;;22.40;99.90;;;;;;5077277;28;20443;-51
2021/09/27 12:34:20;;;;;;;7.40;6.50;;;22.40;99.90;;;;;;5078560;28;20823;-50
2021/09/27 12:36:50;;;;;;;6.40;5.50;;;22.50;99.90;;;;;;5078154;28;20531;-48
2021/09/27 12:39:22;;;;;;;9.23;7.47;;;22.50;99.90;;;;;;5078162;28;20446;-49
2021/09/27 12:41:49;;;;;;;9.30;6.70;;;22.60;99.90;;;;;;5078256;28;20484;-51
2021/09/27 12:44:20;;;;;;;9.13;6.60;;;22.60;99.90;;;;;;5077457;28;20459;-49
2021/09/27 12:46:50;;;;;;;8.50;7.17;;;22.40;99.90;;;;;;5078216;28;20504;-54
2021/09/27 12:49:29;;;;;;;9.10;7.50;;;22.40;99.90;;;;;;5088487;28;20890;-48
2021/09/27 12:51:57;;;;;;;7.67;6.63;;;22.40;99.90;;;;;;5097361;28;20449;-54
2021/09/27 12:54:30;;;;;;;9.50;6.50;;;22.40;99.90;;;;;;5097674;28;20798;-51
2021/09/27 12:57:00;;;;;;;7.57;6.23;;;22.40;99.90;;;;;;5097751;28;20484;-52
2021/09/27 12:59:30;;;;;;;8.37;7.00;;;22.40;99.90;;;;;;5097810;28;20518;-52
2021/09/27 13:02:03;;;;;;;9.20;7.27;;;22.50;99.90;;;;;;5097618;28;20510;-52
2021/09/27 13:04:44;;;;;;;9.63;6.90;;;22.40;99.90;;;;;;5097661;28;20441;-52
2021/09/27 13:07:14;;;;;;;11.53;9.30;;;22.40;99.90;;;;;;5098739;28;20769;-52
2021/09/27 13:09:57;;;;;;;8.00;6.70;;;22.40;99.90;;;;;;5099399;28;20496;-53
2021/09/27 13:12:26;;;;;;;12.97;9.27;;;22.50;99.90;;;;;;5099218;28;20858;-53
2021/09/27 13:14:59;;;;;;;9.40;7.70;;;22.60;99.90;;;;;;5097188;28;20487;-53
2021/09/27 13:17:29;;;;;;;7.57;6.83;;;22.70;99.90;;;;;;5090352;28;20474;-48
2021/09/27 13:19:58;;;;;;;8.50;7.47;;;22.70;99.90;;;;;;5087645;28;20434;-51
2021/09/27 13:22:27;;;;;;;9.07;7.07;;;22.70;99.90;;;;;;5092450;28;20524;-49
2021/09/27 13:24:56;;;;;;;11.47;8.20;;;22.60;99.90;;;;;;5091340;28;20437;-51